Time;durP1;ratioP1;P1;durP2;ratioP2;P2;SDS_P1;SDS_P2;PMS_P1;PMS_P2;Temp;Humidity;BMP_temperature;BMP_pressure;BME280_temperature;BME280_humidity;BME280_pressure;Samples;Min_cycle;Max_cycle;Signal;HPM_P1;HPM_P2
2022/12/19 00:00:53;;;;;;;;;;;;;;;;;;6227992;23;19920;-84
2022/12/19 00:03:19;;;;;;;;;;;;;;;;;;6234145;23;19916;-83
2022/12/19 00:05:45;;;;;;;;;;;;;;;;;;6175220;23;20466;-83
2022/12/19 00:08:11;;;;;;;;;;;;;;;;;;6232292;23;19923;-83
2022/12/19 00:10:37;;;;;;;;;;;;;;;;;;6230992;23;20242;-83
2022/12/19 00:13:03;;;;;;;;;;;;;;;;;;6229748;23;20030;-83
2022/12/19 00:15:29;;;;;;;;;;;;;;;;;;6203059;23;19951;-83
2022/12/19 00:17:55;;;;;;;;;;;;;;;;;;6175812;23;19931;-83
2022/12/19 00:20:20;;;;;;;;;;;;;;;;;;6203176;23;19924;-83
2022/12/19 00:22:46;;;;;;;;;;;;;;;;;;6200070;23;19965;-83
2022/12/19 00:25:12;;;;;;;;;;;;;;;;;;6177058;23;19920;-83
2022/12/19 00:27:38;;;;;;;;;;;;;;;;;;6201021;23;19966;-83
2022/12/19 00:30:04;;;;;;;;;;;;;;;;;;6173307;23;19947;-83
2022/12/19 00:32:30;;;;;;;;;;;;;;;;;;6203818;23;19923;-83
2022/12/19 00:34:56;;;;;;;;;;;;;;;;;;6178030;23;19927;-83
2022/12/19 00:37:22;;;;;;;;;;;;;;;;;;6178157;23;19923;-83
2022/12/19 00:39:48;;;;;;;;;;;;;;;;;;6228393;23;19923;-83
2022/12/19 00:42:14;;;;;;;;;;;;;;;;;;6209186;23;19915;-83
2022/12/19 00:44:40;;;;;;;;;;;;;;;;;;6203893;23;19958;-83
2022/12/19 00:47:06;;;;;;;;;;;;;;;;;;6206035;23;19923;-83
2022/12/19 00:49:32;;;;;;;;;;;;;;;;;;6206249;23;19919;-82
2022/12/19 00:51:58;;;;;;;;;;;;;;;;;;6178652;23;19915;-82
2022/12/19 00:54:24;;;;;;;;;;;;;;;;;;6181303;23;19919;-83
2022/12/19 00:56:50;;;;;;;;;;;;;;;;;;6202421;23;19994;-82
2022/12/19 00:59:16;;;;;;;;;;;;;;;;;;6178662;23;19934;-83
2022/12/19 01:01:42;;;;;;;;;;;;;;;;;;6175835;23;20301;-83
2022/12/19 01:04:08;;;;;;;;;;;;;;;;;;6180774;23;20280;-83
2022/12/19 01:06:34;;;;;;;;;;;;;;;;;;6177698;23;19919;-83
2022/12/19 01:09:00;;;;;;;;;;;;;;;;;;6176198;23;20401;-83
2022/12/19 01:14:11;;;;;;;;;;;;;;;;;;6205467;23;19977;-83
2022/12/19 01:16:36;;;;;;;;;;;;;;;;;;6206713;23;19923;-83
2022/12/19 01:19:02;;;;;;;;;;;;;;;;;;6177265;23;19950;-83
2022/12/19 01:21:28;;;;;;;;;;;;;;;;;;6177850;23;19949;-84
2022/12/19 01:23:54;;;;;;;;;;;;;;;;;;6176032;23;19919;-83
2022/12/19 01:26:20;;;;;;;;;;;;;;;;;;6229787;23;19916;-83
2022/12/19 01:28:46;;;;;;;;;;;;;;;;;;6173333;23;19971;-83
2022/12/19 01:31:12;;;;;;;;;;;;;;;;;;6176800;23;19916;-83
2022/12/19 01:33:41;;;;;;;;;;;;;;;;;;6205216;23;19973;-83
2022/12/19 01:36:07;;;;;;;;;;;;;;;;;;6182189;23;19958;-83
2022/12/19 01:38:33;;;;;;;;;;;;;;;;;;6179221;23;19930;-83
2022/12/19 01:40:59;;;;;;;;;;;;;;;;;;6203165;23;20604;-84
2022/12/19 01:43:25;;;;;;;;;;;;;;;;;;6202363;23;20501;-84
2022/12/19 01:45:51;;;;;;;;;;;;;;;;;;6176225;23;19942;-84
2022/12/19 01:48:17;;;;;;;;;;;;;;;;;;6202612;23;19951;-83
2022/12/19 01:50:43;;;;;;;;;;;;;;;;;;6199888;23;19966;-84
2022/12/19 01:53:09;;;;;;;;;;;;;;;;;;6203763;23;19919;-84
2022/12/19 01:55:35;;;;;;;;;;;;;;;;;;6205510;23;19920;-83
2022/12/19 01:58:01;;;;;;;;;;;;;;;;;;6201930;23;19919;-84
2022/12/19 02:00:26;;;;;;;;;;;;;;;;;;6176823;23;19965;-84
2022/12/19 02:02:52;;;;;;;;;;;;;;;;;;6175349;23;19927;-84
2022/12/19 02:05:18;;;;;;;;;;;;;;;;;;6201172;23;19922;-84
2022/12/19 02:07:44;;;;;;;;;;;;;;;;;;6202374;23;19920;-84
2022/12/19 02:10:10;;;;;;;;;;;;;;;;;;6203333;23;19916;-84
2022/12/19 02:12:36;;;;;;;;;;;;;;;;;;6176710;23;19923;-84
2022/12/19 02:15:02;;;;;;;;;;;;;;;;;;6172081;23;19919;-84
2022/12/19 02:17:28;;;;;;;;;;;;;;;;;;6224201;23;20376;-84
2022/12/19 02:19:54;;;;;;;;;;;;;;;;;;6218838;23;20537;-84
2022/12/19 02:22:20;;;;;;;;;;;;;;;;;;6226659;22;19965;-84
2022/12/19 02:24:46;;;;;;;;;;;;;;;;;;6201220;23;19926;-84
2022/12/19 02:27:12;;;;;;;;;;;;;;;;;;6202392;23;19920;-85
2022/12/19 02:29:38;;;;;;;;;;;;;;;;;;6200502;23;20256;-84
2022/12/19 02:32:04;;;;;;;;;;;;;;;;;;6199948;23;19919;-84
2022/12/19 02:34:30;;;;;;;;;;;;;;;;;;6230726;23;19926;-84
2022/12/19 02:36:56;;;;;;;;;;;;;;;;;;6200959;23;19920;-84
2022/12/19 02:39:22;;;;;;;;;;;;;;;;;;6201424;23;20248;-84
2022/12/19 02:41:48;;;;;;;;;;;;;;;;;;6195354;23;19926;-84
2022/12/19 02:44:13;;;;;;;;;;;;;;;;;;6199796;23;20042;-84
2022/12/19 02:46:39;;;;;;;;;;;;;;;;;;6173361;23;19920;-84
2022/12/19 02:49:05;;;;;;;;;;;;;;;;;;6199499;23;19929;-85
2022/12/19 02:51:31;;;;;;;;;;;;;;;;;;6195160;23;19920;-84
2022/12/19 02:53:57;;;;;;;;;;;;;;;;;;6194613;23;20296;-85
2022/12/19 02:56:23;;;;;;;;;;;;;;;;;;6199665;23;20017;-85
2022/12/19 02:58:49;;;;;;;;;;;;;;;;;;6199931;23;20478;-85
2022/12/19 03:01:15;;;;;;;;;;;;;;;;;;6200157;23;20355;-84
2022/12/19 03:03:41;;;;;;;;;;;;;;;;;;6195375;23;19919;-84
2022/12/19 03:06:07;;;;;;;;;;;;;;;;;;6176006;23;19959;-85
2022/12/19 03:08:33;;;;;;;;;;;;;;;;;;6201313;23;19920;-85
2022/12/19 03:10:59;;;;;;;;;;;;;;;;;;6196403;23;20316;-84
2022/12/19 03:13:25;;;;;;;;;;;;;;;;;;6197940;23;19920;-85
2022/12/19 03:15:51;;;;;;;;;;;;;;;;;;6195501;23;19919;-84
2022/12/19 03:18:17;;;;;;;;;;;;;;;;;;6175692;23;19953;-84
2022/12/19 03:20:43;;;;;;;;;;;;;;;;;;6195453;23;20376;-84
2022/12/19 03:23:09;;;;;;;;;;;;;;;;;;6229685;22;20332;-84
2022/12/19 03:25:35;;;;;;;;;;;;;;;;;;6175885;23;20014;-84
2022/12/19 03:28:01;;;;;;;;;;;;;;;;;;6202001;23;19919;-84
2022/12/19 03:30:27;;;;;;;;;;;;;;;;;;6198346;23;19970;-84
2022/12/19 03:32:53;;;;;;;;;;;;;;;;;;6173205;23;19920;-84
2022/12/19 03:35:19;;;;;;;;;;;;;;;;;;6174395;23;20264;-84
2022/12/19 03:37:45;;;;;;;;;;;;;;;;;;6196444;23;19919;-84
2022/12/19 03:40:11;;;;;;;;;;;;;;;;;;6177743;23;20241;-85
2022/12/19 03:45:22;;;;;;;;;;;;;;;;;;6202728;23;20026;-84
2022/12/19 03:47:48;;;;;;;;;;;;;;;;;;6174074;23;20022;-84
2022/12/19 03:50:13;;;;;;;;;;;;;;;;;;6175294;23;19950;-84
2022/12/19 03:52:39;;;;;;;;;;;;;;;;;;6201160;23;19919;-84
2022/12/19 03:55:06;;;;;;;;;;;;;;;;;;6203040;23;19925;-84
2022/12/19 03:57:32;;;;;;;;;;;;;;;;;;6199740;23;20295;-84
2022/12/19 03:59:58;;;;;;;;;;;;;;;;;;6200963;23;19923;-84
2022/12/19 04:02:24;;;;;;;;;;;;;;;;;;6229222;23;19920;-84
2022/12/19 04:04:49;;;;;;;;;;;;;;;;;;6200397;23;20010;-84
2022/12/19 04:07:15;;;;;;;;;;;;;;;;;;6177430;23;19926;-84
2022/12/19 04:09:41;;;;;;;;;;;;;;;;;;6199652;23;19919;-85
2022/12/19 04:12:07;;;;;;;;;;;;;;;;;;6178497;23;19916;-85
2022/12/19 04:14:33;;;;;;;;;;;;;;;;;;6202181;23;20245;-85
2022/12/19 04:16:59;;;;;;;;;;;;;;;;;;6199337;23;20384;-84
2022/12/19 04:19:26;;;;;;;;;;;;;;;;;;6204506;23;19931;-84
2022/12/19 04:21:52;;;;;;;;;;;;;;;;;;6173262;22;19915;-85
2022/12/19 04:24:18;;;;;;;;;;;;;;;;;;6205301;23;19916;-84
2022/12/19 04:26:43;;;;;;;;;;;;;;;;;;6174612;23;19922;-84
2022/12/19 04:29:09;;;;;;;;;;;;;;;;;;6200954;23;19959;-84
2022/12/19 04:31:35;;;;;;;;;;;;;;;;;;6178647;23;19920;-84
2022/12/19 04:34:01;;;;;;;;;;;;;;;;;;6199316;23;20841;-84
2022/12/19 04:36:27;;;;;;;;;;;;;;;;;;6201019;23;19915;-84
2022/12/19 04:38:53;;;;;;;;;;;;;;;;;;6199010;23;20347;-84
2022/12/19 04:41:19;;;;;;;;;;;;;;;;;;6199486;23;19927;-84
2022/12/19 04:43:45;;;;;;;;;;;;;;;;;;6196679;23;20284;-84
2022/12/19 04:46:11;;;;;;;;;;;;;;;;;;6175842;23;19981;-84
2022/12/19 04:48:37;;;;;;;;;;;;;;;;;;6227605;23;19927;-84
2022/12/19 04:51:03;;;;;;;;;;;;;;;;;;6197952;23;19919;-84
2022/12/19 04:53:29;;;;;;;;;;;;;;;;;;6178235;23;20265;-84
2022/12/19 04:55:55;;;;;;;;;;;;;;;;;;6173616;23;20325;-84
2022/12/19 04:58:21;;;;;;;;;;;;;;;;;;6176543;23;20731;-84
2022/12/19 05:00:47;;;;;;;;;;;;;;;;;;6173096;23;20073;-84
2022/12/19 05:03:13;;;;;;;;;;;;;;;;;;6198602;23;19919;-85
2022/12/19 05:05:39;;;;;;;;;;;;;;;;;;6175686;23;20025;-84
2022/12/19 05:08:05;;;;;;;;;;;;;;;;;;6173298;23;20010;-84
2022/12/19 05:10:31;;;;;;;;;;;;;;;;;;6199908;23;19919;-85
2022/12/19 05:12:57;;;;;;;;;;;;;;;;;;6197207;23;20343;-84
2022/12/19 05:15:23;;;;;;;;;;;;;;;;;;6175378;23;20333;-84
2022/12/19 05:17:49;;;;;;;;;;;;;;;;;;6198972;23;20295;-84
2022/12/19 05:20:14;;;;;;;;;;;;;;;;;;6177089;23;20320;-85
2022/12/19 05:22:40;;;;;;;;;;;;;;;;;;6200179;23;19926;-85
2022/12/19 05:25:06;;;;;;;;;;;;;;;;;;6176633;23;19930;-85
2022/12/19 05:27:35;;;;;;;;;;;;;;;;;;6198798;23;20002;-84
2022/12/19 05:30:01;;;;;;;;;;;;;;;;;;6199148;23;19966;-84
2022/12/19 05:32:27;;;;;;;;;;;;;;;;;;6178864;23;19919;-84
2022/12/19 05:34:53;;;;;;;;;;;;;;;;;;6200246;23;19969;-84
2022/12/19 05:37:19;;;;;;;;;;;;;;;;;;6177034;23;19998;-84
2022/12/19 05:39:45;;;;;;;;;;;;;;;;;;6176254;23;19923;-85
2022/12/19 05:42:11;;;;;;;;;;;;;;;;;;6201969;23;19920;-85
2022/12/19 05:44:37;;;;;;;;;;;;;;;;;;6176930;23;20260;-85
2022/12/19 05:47:03;;;;;;;;;;;;;;;;;;6175766;23;19919;-85
2022/12/19 05:49:29;;;;;;;;;;;;;;;;;;6199340;23;19920;-85
2022/12/19 05:51:55;;;;;;;;;;;;;;;;;;6171589;23;19919;-85
2022/12/19 05:54:21;;;;;;;;;;;;;;;;;;6178692;23;19920;-85
2022/12/19 05:56:47;;;;;;;;;;;;;;;;;;6198881;23;19958;-85
2022/12/19 05:59:13;;;;;;;;;;;;;;;;;;6177421;23;19923;-85
2022/12/19 06:01:39;;;;;;;;;;;;;;;;;;6200323;23;19927;-85
2022/12/19 06:04:06;;;;;;;;;;;;;;;;;;6201007;23;19919;-85
2022/12/19 06:06:32;;;;;;;;;;;;;;;;;;6200321;23;20461;-84
2022/12/19 06:08:58;;;;;;;;;;;;;;;;;;6201004;23;19924;-85
2022/12/19 06:11:24;;;;;;;;;;;;;;;;;;6203777;23;19919;-85
2022/12/19 06:13:50;;;;;;;;;;;;;;;;;;6172045;23;19920;-85
2022/12/19 06:16:16;;;;;;;;;;;;;;;;;;6199368;23;19935;-85
2022/12/19 06:18:42;;;;;;;;;;;;;;;;;;6172198;23;19994;-86
2022/12/19 06:21:08;;;;;;;;;;;;;;;;;;6196880;23;19923;-85
2022/12/19 06:23:34;;;;;;;;;;;;;;;;;;6195719;23;19933;-85
2022/12/19 06:26:00;;;;;;;;;;;;;;;;;;6170560;23;19976;-85
2022/12/19 06:28:26;;;;;;;;;;;;;;;;;;6176486;23;19977;-86
2022/12/19 06:30:52;;;;;;;;;;;;;;;;;;6198617;23;20327;-86
2022/12/19 06:33:18;;;;;;;;;;;;;;;;;;6177013;23;19920;-84
2022/12/19 06:35:43;;;;;;;;;;;;;;;;;;6195660;23;20085;-86
2022/12/19 06:38:09;;;;;;;;;;;;;;;;;;6197230;23;19919;-85
2022/12/19 06:43:20;;;;;;;;;;;;;;;;;;6201030;23;19947;-86
2022/12/19 06:45:46;;;;;;;;;;;;;;;;;;6171833;23;19924;-89
2022/12/19 06:48:12;;;;;;;;;;;;;;;;;;6172223;23;19991;-91
2022/12/19 06:50:41;;;;;;;;;;;;;;;;;;6172530;23;20003;-89
2022/12/19 06:53:07;;;;;;;;;;;;;;;;;;6171998;23;19919;-89
2022/12/19 06:55:33;;;;;;;;;;;;;;;;;;6175094;23;20646;-89
2022/12/19 06:57:59;;;;;;;;;;;;;;;;;;6172052;23;19990;-89
2022/12/19 07:00:26;;;;;;;;;;;;;;;;;;6197138;23;20341;-90
2022/12/19 07:02:52;;;;;;;;;;;;;;;;;;6169043;23;19923;-89
2022/12/19 08:25:21;;;;;;;;;;;;;;;;;;6222360;23;19927;-91
2022/12/19 08:27:47;;;;;;;;;;;;;;;;;;6204133;23;20218;-91
2022/12/19 08:30:13;;;;;;;;;;;;;;;;;;6181588;23;19926;-90
2022/12/19 08:32:39;;;;;;;;;;;;;;;;;;6205210;23;19919;-91
2022/12/19 08:35:05;;;;;;;;;;;;;;;;;;6203712;23;19919;-90
2022/12/19 08:37:31;;;;;;;;;;;;;;;;;;6180498;23;19942;-90
2022/12/19 08:39:57;;;;;;;;;;;;;;;;;;6180232;23;19932;-90
2022/12/19 08:42:23;;;;;;;;;;;;;;;;;;6181146;23;19926;-91
2022/12/19 08:44:49;;;;;;;;;;;;;;;;;;6178426;23;20356;-90
2022/12/19 08:47:15;;;;;;;;;;;;;;;;;;6206302;23;19916;-90
2022/12/19 08:49:41;;;;;;;;;;;;;;;;;;6203302;23;19920;-90
2022/12/19 08:52:07;;;;;;;;;;;;;;;;;;6181696;23;20344;-90
2022/12/19 08:54:33;;;;;;;;;;;;;;;;;;6180568;23;19986;-91
2022/12/19 08:56:59;;;;;;;;;;;;;;;;;;6205945;23;19919;-90
2022/12/19 08:59:25;;;;;;;;;;;;;;;;;;6178546;23;19939;-91
2022/12/19 09:01:50;;;;;;;;;;;;;;;;;;6176909;23;19927;-90
2022/12/19 09:04:16;;;;;;;;;;;;;;;;;;6181238;23;19915;-90
2022/12/19 09:06:42;;;;;;;;;;;;;;;;;;6179778;23;19920;-91
2022/12/19 09:09:08;;;;;;;;;;;;;;;;;;6183114;23;19926;-90
2022/12/19 09:11:34;;;;;;;;;;;;;;;;;;6209194;23;19927;-91
2022/12/19 09:14:00;;;;;;;;;;;;;;;;;;6179020;23;19999;-91
2022/12/19 09:16:26;;;;;;;;;;;;;;;;;;6182050;23;19926;-90
2022/12/19 09:18:52;;;;;;;;;;;;;;;;;;6180543;23;19920;-91
2022/12/19 09:21:18;;;;;;;;;;;;;;;;;;6208363;23;19923;-90
2022/12/19 09:23:44;;;;;;;;;;;;;;;;;;6203397;23;19931;-90
2022/12/19 09:26:10;;;;;;;;;;;;;;;;;;6204996;23;20116;-90
2022/12/19 09:28:36;;;;;;;;;;;;;;;;;;6179987;23;19916;-90
2022/12/19 09:31:03;;;;;;;;;;;;;;;;;;6179065;23;20291;-91
2022/12/19 09:33:30;;;;;;;;;;;;;;;;;;6180781;23;19994;-90
2022/12/19 09:35:56;;;;;;;;;;;;;;;;;;6178920;23;19927;-90
2022/12/19 09:38:22;;;;;;;;;;;;;;;;;;6182645;23;19927;-90
2022/12/19 09:40:47;;;;;;;;;;;;;;;;;;6203457;23;19927;-91
2022/12/19 09:43:13;;;;;;;;;;;;;;;;;;6206350;23;19923;-90
2022/12/19 09:45:39;;;;;;;;;;;;;;;;;;6178226;23;19965;-90
2022/12/19 09:48:05;;;;;;;;;;;;;;;;;;6206290;23;20388;-90
2022/12/19 09:50:31;;;;;;;;;;;;;;;;;;6184475;23;19993;-90
2022/12/19 09:52:57;;;;;;;;;;;;;;;;;;6178504;23;19930;-90
2022/12/19 09:55:23;;;;;;;;;;;;;;;;;;6186080;23;20244;-90
2022/12/19 09:57:49;;;;;;;;;;;;;;;;;;6180343;23;19986;-90
2022/12/19 10:00:15;;;;;;;;;;;;;;;;;;6201244;23;19924;-89
2022/12/19 10:02:41;;;;;;;;;;;;;;;;;;6196688;23;19919;-89
2022/12/19 10:05:07;;;;;;;;;;;;;;;;;;6179000;23;19973;-90
2022/12/19 10:07:33;;;;;;;;;;;;;;;;;;6201219;23;19923;-88
2022/12/19 10:09:59;;;;;;;;;;;;;;;;;;6199074;23;20117;-88
2022/12/19 10:12:26;;;;;;;;;;;;;;;;;;6176031;23;20025;-91
2022/12/19 10:14:51;;;;;;;;;;;;;;;;;;6199302;23;19926;-90
2022/12/19 10:17:17;;;;;;;;;;;;;;;;;;6202296;23;19986;-89
2022/12/19 10:19:43;;;;;;;;;;;;;;;;;;6199016;23;19930;-88
2022/12/19 10:22:09;;;;;;;;;;;;;;;;;;6201169;23;19920;-89
2022/12/19 10:24:35;;;;;;;;;;;;;;;;;;6226543;23;19924;-89
2022/12/19 10:27:01;;;;;;;;;;;;;;;;;;6172947;23;19927;-89
2022/12/19 10:29:27;;;;;;;;;;;;;;;;;;6177207;23;19919;-89
2022/12/19 10:31:53;;;;;;;;;;;;;;;;;;6174699;23;20197;-91
2022/12/19 10:34:19;;;;;;;;;;;;;;;;;;6178011;23;19919;-88
2022/12/19 10:36:45;;;;;;;;;;;;;;;;;;6172828;23;19947;-90
2022/12/19 10:39:11;;;;;;;;;;;;;;;;;;6199835;23;19926;-89
2022/12/19 10:41:37;;;;;;;;;;;;;;;;;;6201038;23;19924;-88
2022/12/19 10:44:07;;;;;;;;;;;;;;;;;;6172878;23;20301;-90
2022/12/19 10:46:33;;;;;;;;;;;;;;;;;;6176824;23;19927;-91
2022/12/19 10:48:58;;;;;;;;;;;;;;;;;;6173370;23;19919;-90
2022/12/19 10:51:24;;;;;;;;;;;;;;;;;;6202052;23;19926;-90
2022/12/19 10:53:50;;;;;;;;;;;;;;;;;;6196912;23;19920;-91
2022/12/19 10:56:16;;;;;;;;;;;;;;;;;;6176727;23;19931;-90
2022/12/19 10:58:45;;;;;;;;;;;;;;;;;;6174761;23;20389;-91
2022/12/19 11:01:11;;;;;;;;;;;;;;;;;;6176228;23;19919;-89
2022/12/19 11:03:37;;;;;;;;;;;;;;;;;;6175739;23;19930;-91
2022/12/19 11:06:03;;;;;;;;;;;;;;;;;;6170158;23;19919;-90
2022/12/19 11:08:30;;;;;;;;;;;;;;;;;;6178401;23;19926;-91
2022/12/19 11:10:56;;;;;;;;;;;;;;;;;;6200387;23;19915;-89
2022/12/19 11:13:22;;;;;;;;;;;;;;;;;;6178638;23;19941;-89
2022/12/19 11:15:48;;;;;;;;;;;;;;;;;;6200103;23;20318;-89
2022/12/19 11:18:15;;;;;;;;;;;;;;;;;;6178753;23;19926;-89
2022/12/19 11:20:41;;;;;;;;;;;;;;;;;;6178719;23;19934;-89
2022/12/19 11:23:07;;;;;;;;;;;;;;;;;;6179242;23;20252;-88
2022/12/19 11:25:33;;;;;;;;;;;;;;;;;;6179083;23;20002;-88
2022/12/19 11:27:59;;;;;;;;;;;;;;;;;;6179289;23;19924;-88
2022/12/19 11:30:25;;;;;;;;;;;;;;;;;;6179505;23;19972;-88
2022/12/19 11:32:52;;;;;;;;;;;;;;;;;;6202719;23;19919;-88
2022/12/19 11:35:18;;;;;;;;;;;;;;;;;;6180273;23;19943;-88
2022/12/19 11:37:44;;;;;;;;;;;;;;;;;;6177170;23;19977;-88
2022/12/19 11:40:10;;;;;;;;;;;;;;;;;;6175232;23;19919;-88
2022/12/19 11:42:36;;;;;;;;;;;;;;;;;;6180112;23;19922;-88
2022/12/19 11:45:02;;;;;;;;;;;;;;;;;;6200612;23;19990;-88
2022/12/19 11:47:28;;;;;;;;;;;;;;;;;;6206798;23;19919;-88
2022/12/19 11:49:54;;;;;;;;;;;;;;;;;;6180731;23;19926;-88
2022/12/19 11:52:20;;;;;;;;;;;;;;;;;;6207535;23;19915;-88
2022/12/19 11:54:46;;;;;;;;;;;;;;;;;;6179127;23;19951;-88
2022/12/19 11:57:12;;;;;;;;;;;;;;;;;;6179624;23;19965;-87
2022/12/19 11:59:38;;;;;;;;;;;;;;;;;;6206212;23;20605;-87
2022/12/19 12:02:04;;;;;;;;;;;;;;;;;;6177681;23;19920;-87
2022/12/19 12:04:30;;;;;;;;;;;;;;;;;;6179707;23;19923;-88
2022/12/19 12:06:56;;;;;;;;;;;;;;;;;;6201612;23;19915;-87
2022/12/19 12:09:22;;;;;;;;;;;;;;;;;;6204783;23;19938;-88
2022/12/19 12:11:47;;;;;;;;;;;;;;;;;;6202097;23;19920;-88
2022/12/19 12:14:13;;;;;;;;;;;;;;;;;;6182250;23;19947;-87
2022/12/19 12:16:39;;;;;;;;;;;;;;;;;;6178863;23;19915;-88
2022/12/19 12:19:08;;;;;;;;;;;;;;;;;;6181054;23;20317;-88
2022/12/19 12:21:34;;;;;;;;;;;;;;;;;;6205605;23;19982;-87
2022/12/19 12:24:00;;;;;;;;;;;;;;;;;;6178317;23;19998;-87
2022/12/19 12:26:26;;;;;;;;;;;;;;;;;;6207915;23;19926;-87
2022/12/19 12:28:52;;;;;;;;;;;;;;;;;;6179937;23;19920;-88
2022/12/19 12:31:24;;;;;;;;;;;;;;;;;;6207142;23;19919;-88
2022/12/19 13:26:56;;;;;;;;;;;;;;;;;;6184618;23;19989;-85
2022/12/19 16:31:08;;;;;;;;;;;;;;;;;;6204970;22;20226;-89
2022/12/19 22:03:42;;;;;;;;;;;;;;;;;;6210339;22;19943;-89
2022/12/19 22:06:08;;;;;;;;;;;;;;;;;;6152744;23;19966;-89
2022/12/19 22:08:35;;;;;;;;;;;;;;;;;;6176437;23;19930;-89
2022/12/19 22:11:01;;;;;;;;;;;;;;;;;;6148003;23;19919;-89
2022/12/19 22:13:27;;;;;;;;;;;;;;;;;;6150507;23;19924;-89
2022/12/19 22:15:56;;;;;;;;;;;;;;;;;;6171750;23;20356;-89
2022/12/19 22:18:22;;;;;;;;;;;;;;;;;;6174706;23;19998;-89
2022/12/19 22:20:48;;;;;;;;;;;;;;;;;;6146628;23;19994;-89
2022/12/19 22:23:14;;;;;;;;;;;;;;;;;;6149975;23;19926;-89
2022/12/19 22:25:40;;;;;;;;;;;;;;;;;;6145933;23;19920;-90
2022/12/19 22:28:06;;;;;;;;;;;;;;;;;;6148536;23;19995;-90
2022/12/19 22:30:32;;;;;;;;;;;;;;;;;;6176175;23;19920;-90
2022/12/19 22:32:58;;;;;;;;;;;;;;;;;;6150367;23;19920;-89
2022/12/19 22:35:24;;;;;;;;;;;;;;;;;;6171839;23;20342;-89
2022/12/19 22:37:50;;;;;;;;;;;;;;;;;;6145272;23;20258;-89
2022/12/19 22:40:16;;;;;;;;;;;;;;;;;;6148526;23;19928;-90
2022/12/19 22:42:42;;;;;;;;;;;;;;;;;;6147641;23;19920;-90
2022/12/19 22:45:08;;;;;;;;;;;;;;;;;;6176386;23;19974;-89
2022/12/19 22:47:35;;;;;;;;;;;;;;;;;;6146329;23;19927;-89
2022/12/19 22:50:01;;;;;;;;;;;;;;;;;;6166028;23;19919;-90
2022/12/19 22:52:27;;;;;;;;;;;;;;;;;;6149910;23;19978;-89
2022/12/19 22:54:53;;;;;;;;;;;;;;;;;;6148281;23;20314;-88
2022/12/19 22:57:19;;;;;;;;;;;;;;;;;;6150498;23;19935;-89
2022/12/19 22:59:45;;;;;;;;;;;;;;;;;;6170057;23;20596;-89
2022/12/19 23:02:11;;;;;;;;;;;;;;;;;;6150714;23;19924;-89
2022/12/19 23:04:37;;;;;;;;;;;;;;;;;;6151033;23;19997;-89
2022/12/19 23:07:03;;;;;;;;;;;;;;;;;;6149087;23;19927;-89
2022/12/19 23:09:29;;;;;;;;;;;;;;;;;;6151502;23;19920;-89
2022/12/19 23:11:55;;;;;;;;;;;;;;;;;;6148985;23;19920;-88
2022/12/19 23:14:21;;;;;;;;;;;;;;;;;;6147880;23;19999;-89
2022/12/19 23:16:47;;;;;;;;;;;;;;;;;;6146817;23;19927;-89
2022/12/19 23:19:13;;;;;;;;;;;;;;;;;;6149906;23;19915;-89
2022/12/19 23:21:39;;;;;;;;;;;;;;;;;;6149220;23;19930;-89
2022/12/19 23:24:05;;;;;;;;;;;;;;;;;;6148492;23;20191;-89
2022/12/19 23:26:31;;;;;;;;;;;;;;;;;;6147664;23;19924;-88
2022/12/19 23:28:57;;;;;;;;;;;;;;;;;;6144115;23;19922;-89
2022/12/19 23:31:23;;;;;;;;;;;;;;;;;;6173574;23;19915;-89
2022/12/19 23:33:49;;;;;;;;;;;;;;;;;;6172361;23;19915;-89
2022/12/19 23:36:15;;;;;;;;;;;;;;;;;;6150513;23;20014;-88
2022/12/19 23:38:43;;;;;;;;;;;;;;;;;;6173281;23;19954;-89
2022/12/19 23:41:09;;;;;;;;;;;;;;;;;;6149929;23;19920;-88
2022/12/19 23:43:35;;;;;;;;;;;;;;;;;;6175699;23;19920;-89
2022/12/19 23:46:01;;;;;;;;;;;;;;;;;;6147235;23;19919;-89
2022/12/19 23:48:27;;;;;;;;;;;;;;;;;;6173833;23;19951;-89
2022/12/19 23:50:53;;;;;;;;;;;;;;;;;;6170195;23;19926;-89
2022/12/19 23:53:19;;;;;;;;;;;;;;;;;;6174125;23;19916;-88
2022/12/19 23:55:45;;;;;;;;;;;;;;;;;;6165988;23;19942;-89
2022/12/19 23:58:11;;;;;;;;;;;;;;;;;;6164780;23;20304;-90
